Data for 03/10/2013

Time Sea-Level Adjusted Pressure Absolute Pressure Temperature Relative Humidity Dew Point   
(mb) (inHg) (mb) (inHg) (C) (F) (%) (C) (F)
00:05 1024 30.24 853 25.19 -2.4 27.7 57 -9.8 14.4
00:10 1024 30.24 853 25.19 -2.5 27.5 57 -9.9 14.2
00:15 1024 30.24 853 25.19 -2.1 28.2 56 -9.7 14.5
00:20 1024 30.24 853 25.19 -2.1 28.2 56 -9.7 14.6
00:25 1024 30.24 853 25.19 -2.2 28 56 -9.8 14.4
00:30 1024 30.24 854 25.22 -2.4 27.7 57 -9.7 14.5
00:35 1024 30.24 854 25.22 -2.6 27.3 57 -10 14.1
00:40 1024 30.24 854 25.22 -2.6 27.2 57 -10 14.1
00:45 1024 30.24 854 25.22 -2.7 27.2 58 -10 14.1
00:50 1024 30.24 854 25.22 -2.6 27.3 57 -10 14
00:55 1024 30.24 854 25.22 -2.7 27.2 58 -9.9 14.1
01:00 1024 30.24 854 25.22 -2.8 26.9 58 -9.9 14.1
01:05 1024 30.24 854 25.22 -2.8 27 58 -9.9 14.2
01:10 1024 30.24 854 25.22 -2.9 26.8 58 -10 14.1
01:15 1024 30.24 854 25.22 -2.9 26.8 59 -9.9 14.1
01:20 1024 30.24 854 25.22 -2.7 27.2 58 -9.9 14.1
01:25 1024 30.24 854 25.22 -2.4 27.7 58 -9.6 14.7
01:30 1025 30.27 854 25.22 -2.1 28.2 57 -9.5 14.8
01:35 1025 30.27 854 25.22 -1.8 28.7 57 -9.4 15.1
01:40 1025 30.27 854 25.22 -2 28.3 56 -9.6 14.7
01:45 1025 30.27 854 25.22 -2.1 28.2 55 -9.9 14.1
01:50 1025 30.27 854 25.22 -2.1 28.3 56 -9.7 14.6
01:55 1025 30.27 854 25.22 -2.5 27.5 57 -9.8 14.3
03:00 1024 30.24 854 25.22 -2.5 27.5 57 -9.8 14.3
03:05 1024 30.24 854 25.22 -2.5 27.6 57 -9.8 14.3
03:10 1024 30.24 854 25.22 -2.5 27.6 57 -9.8 14.4
03:15 1025 30.27 854 25.22 -2.6 27.4 57 -9.9 14.2
03:20 1024 30.24 854 25.22 -2.7 27.2 58 -9.8 14.3
03:25 1024 30.24 854 25.22 -2.7 27.1 58 -9.8 14.4
03:30 1025 30.27 854 25.22 -2.6 27.2 58 -9.8 14.3
03:35 1025 30.27 854 25.22 -2.7 27.1 59 -9.8 14.4
03:40 1024 30.24 854 25.22 -3 26.5 60 -9.8 14.4
03:45 1024 30.24 854 25.22 -3.1 26.5 59 -9.9 14.2
03:50 1024 30.24 854 25.22 -3.1 26.4 60 -9.9 14.2
03:55 1024 30.24 854 25.22 -2.8 26.9 61 -9.4 15.1
04:00 1024 30.24 854 25.22 -2.4 27.8 59 -9.3 15.2
04:05 1024 30.24 854 25.22 -2.3 27.9 58 -9.5 14.9
04:10 1024 30.24 853 25.19 -2.2 28 58 -9.4 15.1
04:15 1024 30.24 854 25.22 -2.4 27.7 58 -9.5 14.9
04:20 1024 30.24 854 25.22 -2.5 27.6 58 -9.5 14.8
04:25 1024 30.24 854 25.22 -2.7 27.1 59 -9.7 14.5
04:30 1024 30.24 853 25.19 -2.7 27.1 59 -9.7 14.6
04:35 1024 30.24 854 25.22 -2.7 27.2 59 -9.7 14.6
04:40 1024 30.24 854 25.22 -2.8 27 58 -9.8 14.3
04:45 1024 30.24 854 25.22 -2.5 27.4 58 -9.7 14.5
04:50 1024 30.24 854 25.22 -2.5 27.5 58 -9.6 14.6
04:55 1024 30.24 854 25.22 -2.5 27.5 58 -9.7 14.6
05:00 1025 30.27 854 25.22 -2.8 27 59 -9.8 14.4
05:05 1025 30.27 854 25.22 -3.1 26.5 60 -9.7 14.5
05:10 1025 30.27 854 25.22 -3.2 26.3 61 -9.7 14.6
05:15 1025 30.27 854 25.22 -3.3 26.1 61 -9.9 14.2
05:20 1025 30.27 854 25.22 -3 26.6 59 -9.8 14.3
05:25 1025 30.27 854 25.22 -2.7 27.1 59 -9.7 14.6
05:30 1025 30.27 854 25.22 -3.3 26 62 -9.6 14.7
05:35 1025 30.27 854 25.22 -3.4 25.8 62 -9.7 14.5
05:40 1025 30.27 854 25.22 -3.3 26.1 61 -9.7 14.5
05:45 1025 30.27 854 25.22 -3.3 26.1 61 -9.7 14.5
05:50 1025 30.27 854 25.22 -3 26.7 60 -9.7 14.6
05:55 1025 30.27 854 25.22 -3.2 26.2 61 -9.8 14.4
06:00 1025 30.27 854 25.22 -3.3 26 61 -9.8 14.4
06:05 1025 30.27 854 25.22 -3.5 25.8 65 -9.1 15.6
06:10 1025 30.27 854 25.22 -3.6 25.6 65 -9.2 15.4
06:15 1025 30.27 854 25.22 -3.5 25.7 65 -9.1 15.7
06:20 1025 30.27 854 25.22 -3.5 25.7 65 -9.1 15.6
06:25 1025 30.27 854 25.22 -3.5 25.6 64 -9.5 15
06:30 1025 30.27 854 25.22 -3.6 25.6 63 -9.6 14.8
06:35 1025 30.27 854 25.22 -3.5 25.6 62 -9.8 14.4
06:40 1025 30.27 854 25.22 -3.7 25.3 64 -9.5 14.8
06:45 1025 30.27 854 25.22 -4 24.8 65 -9.7 14.5
06:50 1025 30.27 854 25.22 -4.3 24.3 65 -9.9 14.2
06:55 1025 30.27 854 25.22 -4.2 24.4 65 -9.9 14.2
07:00 1025 30.27 854 25.22 -4.2 24.4 64 -10 14.1
07:05 1025 30.27 854 25.22 -4.3 24.2 66 -9.8 14.3
07:10 1025 30.27 854 25.22 -4.3 24.2 66 -9.8 14.3
07:15 1025 30.27 854 25.22 -4.2 24.4 64 -10 14
07:20 1025 30.27 854 25.22 -4 24.8 64 -9.7 14.5
07:25 1025 30.27 854 25.22 -4.2 24.5 65 -9.8 14.3
07:30 1025 30.27 854 25.22 -4.4 24 66 -9.9 14.1
07:35 1025 30.27 854 25.22 -4.6 23.7 66 -10 13.9
07:40 1025 30.27 854 25.22 -4.7 23.5 68 -9.9 14.2
07:45 1025 30.27 854 25.22 -4.9 23.1 68 -10 13.9
07:50 1025 30.27 854 25.22 -5 22.9 67 -10.3 13.5
07:55 1025 30.27 854 25.22 -5.1 22.8 68 -10.2 13.7
08:00 1025 30.27 854 25.22 -4.8 23.3 67 -10 14
08:05 1025 30.27 854 25.22 -4.6 23.8 65 -10.2 13.6
08:10 1025 30.27 854 25.22 -4.1 24.6 65 -9.8 14.4
08:15 1025 30.27 854 25.22 -4 24.7 63 -10.1 13.9
08:20 1025 30.27 854 25.22 -3.9 24.9 63 -10 14
08:25 1025 30.27 854 25.22 -4 24.8 63 -10.1 13.8
08:30 1025 30.27 854 25.22 -4.1 24.6 63 -10.1 13.8
08:35 1025 30.27 854 25.22 -4 24.8 62 -10.2 13.7
08:40 1025 30.27 854 25.22 -3.6 25.4 62 -9.9 14.2
08:45 1025 30.27 854 25.22 -3.7 25.3 62 -10.1 13.9
08:50 1025 30.27 854 25.22 -3.4 25.9 60 -10 14
08:55 1025 30.27 854 25.22 -3.2 26.3 59 -10 14
09:00 1025 30.27 854 25.22 -2.8 26.9 59 -9.9 14.2
09:05 1025 30.27 854 25.22 -2.4 27.6 58 -9.6 14.8
09:10 1025 30.27 854 25.22 -2.2 28 56 -9.8 14.4
09:15 1025 30.27 854 25.22 -1.6 29.2 54 -9.6 14.7
09:20 1025 30.27 854 25.22 -1.3 29.6 54 -9.6 14.8
09:25 1025 30.27 854 25.22 -1.7 28.9 56 -9.4 15.1
09:30 1025 30.27 854 25.22 -2.1 28.2 58 -9.4 15.1
09:35 1025 30.27 854 25.22 -1.9 28.6 57 -9.3 15.2
09:40 1025 30.27 854 25.22 -1.8 28.8 56 -9.4 15.2
09:45 1025 30.27 854 25.22 -1.5 29.4 55 -9.5 15
09:50 1025 30.27 854 25.22 -0.9 30.4 54 -9.1 15.6
09:55 1025 30.27 854 25.22 -0.7 30.7 52 -9.4 15.1
10:00 1025 30.27 854 25.22 -0.1 31.7 50 -9.3 15.3
10:05 1025 30.27 854 25.22 0.8 33.4 48 -9.1 15.7
10:10 1025 30.27 854 25.22 1.2 34.2 48 -8.6 16.5
10:15 1025 30.27 854 25.22 1.4 34.5 45 -9.2 15.5
10:20 1025 30.27 854 25.22 2.1 35.7 43 -9.4 15.1
10:25 1025 30.27 854 25.22 2.5 36.5 42 -9 15.8
10:30 1025 30.27 854 25.22 2.3 36.2 43 -9.1 15.6
10:35 1025 30.27 854 25.22 1.9 35.4 44 -9 15.9
10:40 1025 30.27 854 25.22 1.7 35.1 47 -8.5 16.7
10:45 1025 30.27 854 25.22 2.7 36.8 42 -9.1 15.7
10:50 1025 30.27 854 25.22 2.3 36.2 43 -8.9 16
10:55 1025 30.27 854 25.22 2 35.6 45 -8.7 16.3
11:00 1025 30.27 854 25.22 2 35.6 45 -8.7 16.4
11:05 1025 30.27 854 25.22 2.3 36.1 45 -8.5 16.7
11:10 1025 30.27 854 25.22 2.6 36.6 42 -9.2 15.4
11:15 1025 30.27 854 25.22 3.1 37.7 40 -9.1 15.6
11:20 1025 30.27 854 25.22 3.3 37.9 40 -9 15.9
11:25 1025 30.27 854 25.22 3.5 38.2 40 -8.9 15.9
11:30 1025 30.27 854 25.22 3.4 38.2 42 -8.3 17.1
11:35 1025 30.27 854 25.22 2.9 37.2 43 -8.5 16.7
11:40 1025 30.27 854 25.22 2.3 36.1 47 -8 17.6
11:45 1025 30.27 854 25.22 2.1 35.8 46 -8.4 17
11:50 1024 30.24 854 25.22 2.6 36.7 43 -8.7 16.4
11:55 1024 30.24 854 25.22 2.9 37.2 43 -8.4 16.8
12:00 1024 30.24 853 25.19 2.5 36.6 44 -8.5 16.7
12:05 1024 30.24 853 25.19 2.6 36.7 45 -8.1 17.4
12:10 1024 30.24 853 25.19 1.8 35.3 47 -8.3 17
12:15 1024 30.24 853 25.19 2.1 35.8 45 -8.5 16.7
12:20 1024 30.24 853 25.19 2 35.6 46 -8.4 17
12:25 1024 30.24 853 25.19 2.6 36.6 43 -8.9 16
12:30 1024 30.24 853 25.19 3.4 38.1 42 -8.2 17.2
12:35 1024 30.24 853 25.19 4.1 39.3 39 -8.7 16.4
12:40 1024 30.24 853 25.19 4.4 39.9 38 -8.8 16.2
12:45 1024 30.24 853 25.19 4.3 39.8 35 -10 14.1
12:50 1024 30.24 853 25.19 4.7 40.4 36 -9.4 15.2
12:55 1024 30.24 853 25.19 4.9 40.9 35 -9.3 15.3
13:00 1024 30.24 853 25.19 5.8 42.4 33 -9.3 15.3
13:05 1024 30.24 853 25.19 6.1 43 34 -8.7 16.4
13:10 1023 30.21 853 25.19 5.3 41.5 36 -8.7 16.3
13:15 1023 30.21 853 25.19 5.3 41.5 34 -9.2 15.5
13:20 1023 30.21 852 25.16 5.4 41.8 35 -8.9 16
13:25 1023 30.21 852 25.16 5.4 41.8 33 -9.7 14.6
13:30 1023 30.21 852 25.16 6.2 43.1 29 -10.6 12.9
13:35 1023 30.21 852 25.16 6.7 44.1 29 -10.2 13.6
13:40 1023 30.21 852 25.16 6.9 44.3 30 -9.6 14.8
13:45 1023 30.21 852 25.16 7.4 45.3 27 -10.5 13.1
13:50 1023 30.21 852 25.16 6.6 43.9 28 -10.5 13.1
13:55 1023 30.21 852 25.16 6.7 44 27 -11.2 11.9
14:00 1023 30.21 852 25.16 7.5 45.4 25 -11.3 11.7
14:05 1023 30.21 852 25.16 6.8 44.3 27 -10.7 12.7
14:10 1023 30.21 852 25.16 7.7 45.9 26 -10.7 12.8
14:15 1022 30.18 852 25.16 8.1 46.6 28 -9.2 15.4
14:20 1022 30.18 852 25.16 7.6 45.8 31 -8.6 16.5
14:25 1022 30.18 851 25.13 8 46.4 25 -10.8 12.5
14:30 1022 30.18 851 25.13 8.6 47.4 25 -10.5 13.1
14:35 1022 30.18 851 25.13 8.6 47.4 24 -11 12.1
14:40 1022 30.18 851 25.13 8.7 47.6 24 -11.1 12.1
14:45 1022 30.18 851 25.13 7.9 46.3 26 -10.6 13
14:50 1022 30.18 851 25.13 7 44.6 26 -11.4 11.4
14:55 1022 30.18 851 25.13 7.4 45.2 23 -12.3 9.9
15:00 1022 30.18 851 25.13 8 46.4 23 -12 10.4
15:05 1021 30.15 851 25.13 7.7 45.8 25 -11.1 12
15:10 1021 30.15 851 25.13 7.4 45.3 24 -12.1 10.2
15:15 1021 30.15 850 25.1 7.2 44.9 25 -11.5 11.3
15:20 1021 30.15 850 25.1 6.8 44.2 25 -11.7 10.9
15:25 1021 30.15 850 25.1 7.1 44.7 28 -10.4 13.3
15:30 1021 30.15 850 25.1 7.2 44.9 27 -10.6 13
15:35 1021 30.15 850 25.1 7 44.6 27 -10.9 12.3
15:40 1021 30.15 850 25.1 7.1 44.7 25 -11.5 11.3
15:45 1021 30.15 850 25.1 6.6 43.9 26 -11.4 11.5
15:50 1021 30.15 850 25.1 6.6 43.8 27 -11.2 11.9
15:55 1021 30.15 850 25.1 6.8 44.3 26 -11.3 11.6
16:00 1021 30.15 850 25.1 7.4 45.3 25 -11.3 11.6
16:05 1021 30.15 850 25.1 7.7 45.8 24 -11.5 11.4
16:10 1021 30.15 850 25.1 7.9 46.3 23 -11.8 10.7
16:15 1021 30.15 850 25.1 7.7 45.8 24 -11.5 11.3
16:20 1021 30.15 850 25.1 7.5 45.4 25 -11.3 11.7
16:25 1021 30.15 850 25.1 6.6 43.9 25 -12.1 10.3
16:30 1020 30.12 850 25.1 6.3 43.3 28 -11 12.3
16:35 1020 30.12 850 25.1 7.1 44.8 25 -11.7 10.9
16:40 1020 30.12 850 25.1 7.2 45 27 -10.4 13.4
16:45 1020 30.12 849 25.07 6.4 43.5 30 -10 14
16:50 1020 30.12 849 25.07 6 42.8 31 -10.1 13.8
16:55 1020 30.12 849 25.07 6 42.8 29 -10.8 12.6
17:00 1020 30.12 849 25.07 6 42.7 30 -10.2 13.6
17:05 1020 30.12 849 25.07 5.7 42.2 31 -10.1 13.7
17:10 1020 30.12 849 25.07 5.8 42.4 30 -10.4 13.4
17:15 1020 30.12 849 25.07 5.6 42.1 31 -10.4 13.3
17:20 1020 30.12 849 25.07 5.5 41.9 30 -10.6 12.9
17:25 1020 30.12 849 25.07 5.4 41.6 31 -10.5 13.1
17:30 1020 30.12 849 25.07 5.2 41.4 33 -9.6 14.6
17:35 1020 30.12 849 25.07 5.2 41.3 32 -10.2 13.6
17:40 1020 30.12 849 25.07 5.2 41.3 31 -10.7 12.7
17:45 1020 30.12 849 25.07 5.1 41.2 32 -10.2 13.6
17:50 1020 30.12 849 25.07 5.2 41.3 32 -10.2 13.6
17:55 1020 30.12 849 25.07 5 41 34 -9.8 14.4
18:00 1020 30.12 849 25.07 5 41.1 35 -9.4 15.1
18:05 1020 30.12 849 25.07 5.1 41.1 36 -8.7 16.3
18:10 1019 30.09 849 25.07 5.2 41.4 35 -9.2 15.5
18:15 1019 30.09 849 25.07 5.3 41.5 32 -10.3 13.5
18:20 1019 30.09 849 25.07 5.3 41.5 31 -10.7 12.7
18:25 1019 30.09 849 25.07 5.3 41.5 31 -10.5 13.1
18:30 1019 30.09 849 25.07 5.1 41.2 31 -10.7 12.8
18:35 1019 30.09 849 25.07 5.2 41.4 32 -10.1 13.9
18:40 1019 30.09 848 25.04 5.2 41.3 32 -10.2 13.6
18:45 1019 30.09 848 25.04 5.1 41.2 34 -9.5 14.9
18:50 1019 30.09 848 25.04 5.1 41.2 33 -10.1 13.9
18:55 1019 30.09 848 25.04 5.2 41.4 32 -10.2 13.7
19:00 1019 30.09 848 25.04 5.3 41.6 31 -10.5 13.1
19:05 1019 30.09 848 25.04 5.3 41.6 31 -10.5 13
19:10 1019 30.09 848 25.04 5.2 41.4 31 -10.5 13
19:15 1019 30.09 848 25.04 5.2 41.3 32 -10.3 13.5
19:20 1019 30.09 848 25.04 5 41 32 -10.4 13.3
19:25 1019 30.09 848 25.04 4.9 40.7 34 -9.8 14.3
19:30 1019 30.09 848 25.04 4.8 40.6 33 -10.2 13.7
19:35 1019 30.09 848 25.04 4.8 40.6 32 -10.5 13
19:40 1019 30.09 848 25.04 4.8 40.7 32 -10.4 13.2
19:45 1019 30.09 848 25.04 4.6 40.3 34 -10 14.1
19:50 1019 30.09 848 25.04 4.6 40.2 33 -10.2 13.7
19:55 1019 30.09 848 25.04 4.6 40.3 31 -11.2 11.8
20:00 1019 30.09 848 25.04 5 40.9 33 -10.2 13.6
20:05 1019 30.09 848 25.04 5 41 29 -11.6 11.1
20:10 1019 30.09 848 25.04 5.2 41.3 31 -10.8 12.5
20:15 1019 30.09 848 25.04 5.3 41.6 32 -10.2 13.6
20:20 1019 30.09 848 25.04 5.1 41.3 32 -10.3 13.4
20:25 1019 30.09 848 25.04 5.1 41.2 31 -10.8 12.5
20:30 1019 30.09 848 25.04 5.4 41.7 33 -9.7 14.6
20:35 1019 30.09 848 25.04 5.5 41.8 34 -9.1 15.7
20:40 1019 30.09 848 25.04 5.4 41.7 33 -9.6 14.7
20:45 1019 30.09 848 25.04 5.3 41.6 35 -8.9 16.1
20:50 1019 30.09 848 25.04 5.3 41.5 39 -7.6 18.3
20:55 1019 30.09 848 25.04 5.1 41.3 38 -7.9 17.7
21:00 1019 30.09 848 25.04 4.5 40.2 36 -9.4 15
21:05 1019 30.09 848 25.04 4.5 40.1 35 -9.8 14.3
21:10 1019 30.09 848 25.04 4.6 40.3 33 -10.4 13.2
21:15 1019 30.09 848 25.04 4.8 40.7 31 -11.1 12
21:20 1019 30.09 848 25.04 5.1 41.2 33 -10 14.1
21:25 1019 30.09 848 25.04 5.2 41.3 39 -7.8 18
21:30 1019 30.09 848 25.04 4.6 40.2 41 -7.6 18.4
21:35 1019 30.09 848 25.04 4.4 40 34 -10.1 13.8
21:40 1019 30.09 848 25.04 4.9 40.8 31 -10.7 12.7
21:45 1019 30.09 848 25.04 5.1 41.1 33 -9.9 14.1
21:50 1019 30.09 848 25.04 5.2 41.3 34 -9.5 14.9
21:55 1019 30.09 848 25.04 5.2 41.3 34 -9.4 15.1
22:00 1019 30.09 848 25.04 5.1 41.1 34 -9.4 15
22:05 1019 30.09 848 25.04 5 41 35 -9.4 15.1
22:10 1019 30.09 848 25.04 5 40.9 35 -9.2 15.5
22:15 1019 30.09 848 25.04 5 41 33 -9.9 14.1
22:20 1019 30.09 848 25.04 5.1 41.2 33 -9.9 14.1
22:25 1019 30.09 848 25.04 5.2 41.4 34 -9.4 15
22:30 1019 30.09 848 25.04 5.2 41.3 34 -9.6 14.7
22:35 1019 30.09 848 25.04 5 41.1 31 -10.7 12.8
22:40 1019 30.09 848 25.04 5.3 41.6 32 -9.9 14.1
22:45 1019 30.09 848 25.04 5.3 41.5 33 -9.9 14.2
22:50 1018 30.06 848 25.04 5.2 41.4 33 -9.8 14.3
22:55 1018 30.06 848 25.04 5.2 41.3 34 -9.6 14.7
23:00 1019 30.09 848 25.04 5.1 41.1 35 -9.2 15.4
23:05 1019 30.09 848 25.04 4.9 40.9 35 -9.3 15.2
23:10 1019 30.09 848 25.04 4.9 40.7 36 -9.1 15.7
23:15 1019 30.09 848 25.04 4.8 40.6 37 -8.8 16.1
23:20 1019 30.09 848 25.04 4.6 40.4 38 -8.5 16.6
23:25 1019 30.09 848 25.04 4.5 40.1 39 -8.4 16.8
23:30 1019 30.09 848 25.04 4.4 40 39 -8.4 16.8
23:35 1019 30.09 848 25.04 4.4 39.9 38 -8.7 16.3
23:40 1019 30.09 848 25.04 4.4 39.9 38 -8.6 16.5
23:45 1019 30.09 848 25.04 4.3 39.8 39 -8.4 16.8
23:50 1019 30.09 848 25.04 4.3 39.7 38 -8.6 16.4
23:55 1019 30.09 848 25.04 4.3 39.8 40 -8.2 17.2
24:00 1019 30.09 848 25.04 4.2 39.6 42 -7.6 18.4